Terminal Aerodrome Forecast
Issued by NWS

Home | Current Version | Previous Version | Text Only | Print | Product List | Glossary On
Versions: 1 2 3 4 5 6 7 8 9 10 11 12 13 14 15 16 17 18 19 20 21 22 23 24 25
000
FTUS43 KGRB 312342
TAFRHI
TAF
KRHI 312342Z 0100/0124 36005KT P6SM BKN060
     FM010600 VRB02KT P6SM SCT025
      TEMPO 0106/0110 SCT002 BKN025
     FM011000 36003KT P6SM SCT002 BKN020
      TEMPO 0110/0113 3SM BR BKN002
     FM011500 03007KT P6SM BKN030
     FM012000 02006KT P6SM SCT035=

USA.gov is the U.S. government's official web portal to all federal, state and local government web resources and services.